Alton, Texas
Current Conditions -  °F | °C
As of 8:53 PM on Wednesday 26 Nov 2014 (Local Time) from KMFE Reporting Station
Clear Clear  
Wind Chill: 56°   Ceiling: Unl
Heat Index: 56°   Visibility: 10mi
Dew Point: 50°   Wind: 6mph
Humidity: 80%   Direction: 140°SE
Pressure: 30.3"   Gusts: NA
Location:  26.2155°N, 98.325°W
Report Text: KMFE 270253Z 14005KT 10SM CLR 13/10 A3030 RMK AO2 SLP258 T01330100 51024
Loading
Personal Weather Stations






























Interactive Weather Map New forecast layout! Learn more

10-Day Weather Forecast

Advertisements
Track Severe Weather on mobile